Time;durP1;ratioP1;P1;durP2;ratioP2;P2;SDS_P1;SDS_P2;PMS_P1;PMS_P2;Temp;Humidity;BMP_temperature;BMP_pressure;BME280_temperature;BME280_humidity;BME280_pressure;Samples;Min_cycle;Max_cycle;Signal;HPM_P1;HPM_P2
2022/09/21 00:01:22;;;;;;;7.82;1.60;;;22.30;81.00;;;;;;5028725;28;20110;-67
2022/09/21 00:03:53;;;;;;;11.73;1.55;;;22.60;80.80;;;;;;5031455;28;20018;-67
2022/09/21 00:06:23;;;;;;;12.20;2.20;;;22.70;78.30;;;;;;5037980;28;20040;-66
2022/09/21 00:08:51;;;;;;;4.82;1.20;;;22.70;76.60;;;;;;5029399;28;20013;-67
2022/09/21 00:11:23;;;;;;;7.15;1.40;;;22.80;77.90;;;;;;5034030;28;20385;-67
2022/09/21 00:13:59;;;;;;;7.75;1.92;;;23.10;77.40;;;;;;5034892;28;20024;-68
2022/09/21 00:16:28;;;;;;;10.77;1.65;;;23.40;77.20;;;;;;5027632;28;20029;-68
2022/09/21 00:18:55;;;;;;;7.05;1.48;;;23.60;75.80;;;;;;5034363;28;20524;-67
2022/09/21 00:21:23;;;;;;;9.43;2.13;;;23.70;74.70;;;;;;5028414;28;20144;-68
2022/09/21 00:23:50;;;;;;;10.38;1.52;;;23.90;74.00;;;;;;5032819;28;20105;-68
2022/09/21 00:26:20;;;;;;;9.93;1.48;;;23.80;71.80;;;;;;5027863;28;20050;-66
2022/09/21 00:28:52;;;;;;;8.43;1.67;;;23.70;71.50;;;;;;5026758;28;20026;-67
2022/09/21 00:31:20;;;;;;;8.02;1.60;;;23.60;73.30;;;;;;5028188;28;20053;-67
2022/09/21 00:33:47;;;;;;;6.90;1.70;;;23.60;71.20;;;;;;5028821;28;20028;-67
2022/09/21 00:36:17;;;;;;;6.80;1.80;;;23.50;72.60;;;;;;5041517;28;20042;-67
2022/09/21 00:38:48;;;;;;;9.80;1.90;;;23.60;74.90;;;;;;5027221;28;20026;-67
2022/09/21 00:41:15;;;;;;;7.28;1.40;;;23.80;72.30;;;;;;5030653;28;20053;-66
2022/09/21 00:44:07;;;;;;;4.40;1.38;;;24.00;70.90;;;;;;5027549;28;20033;-67
2022/09/21 00:46:36;;;;;;;6.32;1.33;;;24.10;70.70;;;;;;5022153;28;20040;-67
2022/09/21 00:49:03;;;;;;;6.30;1.40;;;24.10;70.50;;;;;;5028356;28;20493;-65
2022/09/21 00:51:31;;;;;;;8.45;1.20;;;24.10;68.30;;;;;;5028387;28;20037;-65
2022/09/21 00:54:11;;;;;;;8.32;1.63;;;23.90;70.20;;;;;;5030475;28;20491;-65
2022/09/21 00:56:38;;;;;;;6.30;1.20;;;23.80;69.80;;;;;;5032295;28;20474;-66
2022/09/21 00:59:06;;;;;;;3.28;1.02;;;23.70;71.50;;;;;;5029823;28;20105;-66
2022/09/21 01:01:35;;;;;;;7.88;1.80;;;23.70;72.80;;;;;;5030553;28;20036;-67
2022/09/21 01:04:04;;;;;;;5.35;1.75;;;23.80;70.80;;;;;;5030091;28;20128;-66
2022/09/21 01:06:34;;;;;;;6.65;1.55;;;23.90;70.00;;;;;;5031328;28;20041;-66
2022/09/21 01:09:01;;;;;;;10.13;1.40;;;23.90;71.40;;;;;;5032562;28;20531;-66
2022/09/21 01:11:40;;;;;;;8.00;1.55;;;23.80;70.00;;;;;;5029070;28;20021;-66
2022/09/21 01:14:23;;;;;;;9.27;2.20;;;23.70;70.50;;;;;;5026437;28;20068;-66
2022/09/21 01:17:03;;;;;;;9.05;1.92;;;23.60;71.90;;;;;;5029418;28;20032;-66
2022/09/21 01:19:52;;;;;;;5.80;1.45;;;23.50;70.20;;;;;;5030102;28;20037;-66
2022/09/21 01:22:46;;;;;;;3.55;0.98;;;23.60;71.10;;;;;;5024846;28;20041;-66
2022/09/21 01:25:27;;;;;;;7.28;1.42;;;23.70;71.10;;;;;;4991006;28;20026;-67
2022/09/21 01:27:58;;;;;;;3.80;1.13;;;23.80;71.30;;;;;;5034843;28;20079;-68
2022/09/21 01:30:25;;;;;;;5.88;1.88;;;23.80;70.90;;;;;;5032145;28;20068;-70
2022/09/21 01:33:09;;;;;;;4.38;1.30;;;23.80;69.60;;;;;;5042933;28;20048;-68
2022/09/21 01:35:59;;;;;;;5.60;1.33;;;23.70;70.60;;;;;;5028107;28;20058;-67
2022/09/21 01:38:55;;;;;;;14.13;5.80;;;23.60;71.20;;;;;;5023486;28;20501;-67
2022/09/21 01:41:28;;;;;;;7.95;2.53;;;23.70;70.80;;;;;;5033585;28;20033;-67
2022/09/21 01:44:18;;;;;;;6.30;1.52;;;23.70;69.90;;;;;;5028238;28;20037;-70
2022/09/21 01:46:47;;;;;;;7.70;1.77;;;23.40;70.70;;;;;;5033992;28;20049;-67
2022/09/21 01:49:27;;;;;;;10.85;1.65;;;23.40;71.60;;;;;;5036374;28;20721;-68
2022/09/21 01:52:04;;;;;;;3.70;1.45;;;23.40;71.30;;;;;;5030658;28;20029;-67
2022/09/21 01:54:50;;;;;;;11.38;1.67;;;23.20;71.60;;;;;;5028892;28;20170;-67
2022/09/21 01:57:22;;;;;;;10.38;2.67;;;23.10;72.40;;;;;;5018671;28;20050;-68
2022/09/21 02:00:00;;;;;;;10.40;1.80;;;23.00;73.00;;;;;;5030880;28;20569;-68
2022/09/21 02:02:35;;;;;;;11.73;2.15;;;22.90;72.70;;;;;;5026379;28;20046;-68
2022/09/21 02:05:05;;;;;;;10.98;2.10;;;22.90;71.80;;;;;;5012052;28;20025;-67
2022/09/21 02:07:34;;;;;;;5.95;1.38;;;22.90;72.80;;;;;;5028165;28;20033;-67
2022/09/21 02:10:02;;;;;;;7.82;2.25;;;23.00;73.40;;;;;;5040168;28;20078;-67
2022/09/21 02:12:31;;;;;;;8.95;1.73;;;23.00;73.30;;;;;;5029685;28;20103;-67
2022/09/21 02:15:00;;;;;;;4.18;1.20;;;23.10;73.00;;;;;;5029600;28;20045;-66
2022/09/21 02:17:42;;;;;;;8.82;1.75;;;23.10;72.30;;;;;;5045383;28;20064;-68
2022/09/21 02:20:32;;;;;;;7.88;1.40;;;23.10;71.00;;;;;;5031425;28;20036;-66
2022/09/21 02:23:31;;;;;;;8.63;2.22;;;23.00;73.00;;;;;;5016588;28;20044;-65
2022/09/21 02:26:17;;;;;;;5.53;2.25;;;22.90;71.60;;;;;;5036298;28;20393;-65
2022/09/21 02:29:16;;;;;;;11.43;1.70;;;22.80;74.40;;;;;;5029714;28;20033;-67
2022/09/21 02:31:54;;;;;;;11.80;2.30;;;22.80;73.90;;;;;;5028889;28;20036;-67
2022/09/21 02:34:40;;;;;;;10.85;1.60;;;22.80;74.90;;;;;;5028208;28;20065;-67
2022/09/21 02:37:19;;;;;;;7.57;1.55;;;22.90;74.10;;;;;;5019288;28;20033;-66
2022/09/21 02:40:30;;;;;;;7.45;1.83;;;22.70;71.90;;;;;;5031683;28;20125;-67
2022/09/21 02:43:02;;;;;;;6.90;2.13;;;22.60;73.20;;;;;;5011856;28;20132;-65
2022/09/21 02:45:36;;;;;;;7.68;1.60;;;22.50;75.10;;;;;;5027497;28;20033;-67
2022/09/21 02:48:11;;;;;;;8.23;2.67;;;22.60;74.90;;;;;;5041366;28;20485;-66
2022/09/21 02:51:00;;;;;;;7.55;1.90;;;22.60;75.80;;;;;;5031678;28;20029;-66
2022/09/21 02:53:35;;;;;;;14.40;2.33;;;22.50;75.60;;;;;;5030239;28;20113;-66
2022/09/21 02:56:06;;;;;;;15.43;2.05;;;22.50;74.90;;;;;;5032927;28;20029;-66
2022/09/21 02:58:39;;;;;;;10.77;2.22;;;22.40;74.70;;;;;;5029256;28;20433;-65
2022/09/21 03:01:10;;;;;;;10.87;2.03;;;22.20;76.00;;;;;;5028474;28;20104;-65
2022/09/21 03:03:37;;;;;;;6.38;1.80;;;22.20;75.90;;;;;;5028052;28;20036;-66
2022/09/21 03:06:05;;;;;;;5.10;1.73;;;22.30;76.70;;;;;;5029393;28;20028;-66
2022/09/21 03:08:32;;;;;;;10.90;2.83;;;22.30;76.60;;;;;;5031149;28;20033;-66
2022/09/21 03:10:59;;;;;;;6.85;2.08;;;22.30;76.50;;;;;;5028025;28;20017;-66
2022/09/21 03:13:27;;;;;;;5.10;1.95;;;22.30;76.30;;;;;;5027547;28;20080;-67
2022/09/21 03:16:13;;;;;;;10.65;2.10;;;22.20;74.50;;;;;;5028923;28;20018;-67
2022/09/21 03:18:42;;;;;;;5.88;1.52;;;22.10;76.30;;;;;;5027294;28;20025;-66
2022/09/21 03:21:11;;;;;;;7.35;1.60;;;22.20;76.60;;;;;;5027872;28;20033;-67
2022/09/21 03:23:39;;;;;;;6.18;1.38;;;22.30;77.30;;;;;;5028211;28;20370;-67
2022/09/21 03:26:07;;;;;;;9.60;1.95;;;22.30;76.60;;;;;;5022053;28;20021;-67
2022/09/21 03:28:34;;;;;;;10.38;1.98;;;22.30;75.40;;;;;;5027687;28;20018;-66
2022/09/21 03:31:01;;;;;;;8.05;1.67;;;22.20;75.20;;;;;;5030800;28;20060;-67
2022/09/21 03:33:29;;;;;;;7.82;1.70;;;22.10;76.50;;;;;;5035113;28;20029;-67
2022/09/21 03:35:56;;;;;;;8.15;2.10;;;22.10;78.30;;;;;;5026055;28;20042;-67
2022/09/21 03:38:25;;;;;;;5.80;1.90;;;22.10;78.40;;;;;;5026857;28;20029;-66
2022/09/21 03:40:56;;;;;;;13.48;1.70;;;22.10;77.50;;;;;;5026864;28;20018;-66
2022/09/21 03:43:24;;;;;;;8.60;1.60;;;22.00;78.00;;;;;;5027443;28;20033;-67
2022/09/21 03:45:52;;;;;;;9.02;1.88;;;21.90;78.50;;;;;;5024904;28;20629;-67
2022/09/21 03:48:20;;;;;;;7.57;1.52;;;21.70;77.50;;;;;;5027580;28;20025;-68
2022/09/21 03:50:47;;;;;;;6.45;2.20;;;21.60;78.50;;;;;;5032095;28;20686;-68
2022/09/21 03:53:15;;;;;;;9.85;2.00;;;21.40;79.00;;;;;;5030589;28;20672;-68
2022/09/21 03:55:42;;;;;;;4.68;1.83;;;21.30;79.60;;;;;;5025326;28;20030;-67
2022/09/21 03:58:10;;;;;;;6.28;1.90;;;21.30;80.70;;;;;;5029715;28;20934;-66
2022/09/21 04:00:38;;;;;;;7.75;2.03;;;21.30;81.00;;;;;;5036526;28;20018;-66
2022/09/21 04:03:06;;;;;;;6.30;2.20;;;21.20;81.00;;;;;;5037761;28;20033;-65
2022/09/21 04:05:33;;;;;;;7.88;2.03;;;21.30;81.20;;;;;;5039926;28;20096;-65
2022/09/21 04:08:01;;;;;;;7.28;1.38;;;21.20;81.20;;;;;;5033844;28;20032;-66
2022/09/21 04:10:31;;;;;;;8.13;1.92;;;21.20;81.20;;;;;;5030734;28;20394;-66
2022/09/21 04:13:00;;;;;;;4.78;1.67;;;21.20;81.30;;;;;;5019900;28;20025;-66
2022/09/21 04:15:28;;;;;;;7.32;1.92;;;21.20;81.40;;;;;;5023047;28;20025;-67
2022/09/21 04:17:56;;;;;;;7.05;2.10;;;21.20;81.80;;;;;;5035643;28;20033;-65
2022/09/21 04:20:23;;;;;;;5.57;2.35;;;21.10;82.10;;;;;;5035503;28;20462;-66
2022/09/21 04:22:51;;;;;;;8.82;1.70;;;21.10;82.70;;;;;;5034620;28;20041;-66
2022/09/21 04:25:19;;;;;;;6.80;1.60;;;21.00;82.80;;;;;;5030446;28;20029;-67
2022/09/21 04:27:46;;;;;;;6.82;1.70;;;21.00;82.70;;;;;;5016597;28;20348;-68
2022/09/21 04:30:15;;;;;;;10.45;2.70;;;20.90;82.10;;;;;;5028356;28;20025;-67
2022/09/21 04:32:43;;;;;;;6.25;1.50;;;20.90;83.00;;;;;;5032649;28;20030;-67
2022/09/21 04:35:10;;;;;;;10.43;1.85;;;20.80;83.30;;;;;;5032703;28;20125;-67
2022/09/21 04:37:37;;;;;;;7.00;2.00;;;20.80;83.30;;;;;;5034084;28;20021;-67
2022/09/21 04:40:06;;;;;;;8.32;2.10;;;20.80;83.30;;;;;;5029597;28;20021;-68
2022/09/21 04:42:33;;;;;;;11.95;2.38;;;20.70;82.90;;;;;;5035056;28;20029;-66
2022/09/21 04:45:01;;;;;;;9.23;2.03;;;20.60;82.80;;;;;;5039592;28;20060;-66
2022/09/21 04:47:30;;;;;;;6.72;1.98;;;20.50;83.50;;;;;;5030172;28;20045;-66
2022/09/21 04:49:57;;;;;;;7.10;1.80;;;20.40;84.50;;;;;;5029950;28;20021;-66
2022/09/21 04:52:24;;;;;;;8.20;2.10;;;20.30;84.80;;;;;;5031973;28;20108;-63
2022/09/21 04:54:52;;;;;;;11.85;2.90;;;20.20;85.40;;;;;;5033868;28;20021;-64
2022/09/21 04:57:19;;;;;;;5.28;1.95;;;20.10;86.20;;;;;;5041969;28;20021;-64
2022/09/21 04:59:46;;;;;;;17.77;2.47;;;20.00;86.70;;;;;;5036535;28;20736;-67
2022/09/21 05:02:13;;;;;;;9.82;2.55;;;20.00;87.20;;;;;;5029442;28;20033;-65
2022/09/21 05:04:41;;;;;;;7.80;1.60;;;20.00;86.90;;;;;;5040078;28;20571;-66
2022/09/21 05:07:08;;;;;;;6.82;1.50;;;20.00;87.10;;;;;;5031628;28;20036;-65
2022/09/21 05:12:20;;;;;;;4.32;1.65;;;20.00;87.20;;;;;;5033630;28;20032;-66
2022/09/21 05:14:48;;;;;;;6.25;1.88;;;20.00;87.20;;;;;;5038708;28;20524;-66
2022/09/21 05:17:15;;;;;;;6.78;1.60;;;20.00;87.30;;;;;;5022885;28;20413;-66
2022/09/21 05:19:42;;;;;;;5.32;2.28;;;19.90;87.00;;;;;;5016144;28;20515;-67
2022/09/21 05:22:10;;;;;;;10.43;2.05;;;19.90;87.10;;;;;;5028783;28;20034;-67
2022/09/21 05:24:37;;;;;;;8.52;2.90;;;19.90;88.00;;;;;;5038713;28;20025;-67
2022/09/21 05:27:04;;;;;;;9.20;3.85;;;19.80;87.80;;;;;;5030174;28;20079;-67
2022/09/21 05:29:32;;;;;;;7.28;3.10;;;19.80;88.10;;;;;;5025132;28;20028;-65
2022/09/21 05:32:40;;;;;;;7.80;2.05;;;19.70;88.30;;;;;;5025073;28;20013;-65
2022/09/21 05:35:31;;;;;;;6.53;1.88;;;19.70;88.40;;;;;;5010783;28;20146;-65
2022/09/21 05:38:07;;;;;;;5.15;2.25;;;19.60;88.10;;;;;;5030678;28;20104;-66
2022/09/21 05:40:34;;;;;;;9.13;2.10;;;19.50;89.10;;;;;;5030357;28;20417;-66
2022/09/21 05:43:02;;;;;;;5.82;1.77;;;19.50;89.10;;;;;;5029840;28;20037;-65
2022/09/21 05:45:29;;;;;;;9.63;2.53;;;19.40;89.00;;;;;;5029688;28;20100;-65
2022/09/21 05:48:19;;;;;;;8.77;2.30;;;19.40;88.70;;;;;;5031945;28;20036;-65
2022/09/21 05:50:57;;;;;;;7.20;1.90;;;19.40;89.30;;;;;;5027775;28;20014;-65
2022/09/21 05:53:35;;;;;;;9.98;1.73;;;19.40;89.10;;;;;;5027246;28;20032;-66
2022/09/21 05:56:33;;;;;;;5.95;1.58;;;19.30;89.40;;;;;;5019886;28;20025;-65
2022/09/21 05:59:30;;;;;;;7.93;2.05;;;19.30;90.10;;;;;;5033871;28;20025;-68
2022/09/21 06:02:50;;;;;;;11.82;1.63;;;19.20;89.50;;;;;;5023942;28;20021;-67
2022/09/21 06:05:17;;;;;;;11.20;2.83;;;19.10;90.00;;;;;;4994758;28;20639;-67
2022/09/21 06:07:45;;;;;;;6.47;1.60;;;19.00;90.40;;;;;;5028951;28;20549;-67
2022/09/21 06:10:13;;;;;;;6.60;2.47;;;18.90;90.60;;;;;;5029439;28;20022;-67
2022/09/21 06:12:41;;;;;;;9.98;2.40;;;18.80;90.70;;;;;;5025065;28;20098;-67
2022/09/21 06:15:12;;;;;;;8.65;2.10;;;18.70;91.10;;;;;;5024103;28;20029;-67
2022/09/21 06:17:40;;;;;;;7.45;2.10;;;18.60;91.50;;;;;;5019537;28;20025;-66
2022/09/21 06:20:08;;;;;;;15.23;2.50;;;18.60;91.60;;;;;;5023223;28;20029;-67
2022/09/21 06:22:35;;;;;;;6.93;1.95;;;18.40;91.70;;;;;;5025432;28;20034;-67
2022/09/21 06:25:02;;;;;;;11.63;2.25;;;18.40;91.90;;;;;;5030880;28;20382;-67
2022/09/21 06:27:30;;;;;;;8.00;2.13;;;18.30;92.30;;;;;;5027983;28;20181;-68
2022/09/21 06:29:57;;;;;;;6.13;1.88;;;18.30;92.30;;;;;;5029565;28;20020;-66
2022/09/21 06:32:24;;;;;;;7.72;1.95;;;18.20;93.10;;;;;;5028188;28;20079;-67
2022/09/21 06:34:51;;;;;;;6.10;1.92;;;18.10;93.10;;;;;;5026067;28;20029;-66
2022/09/21 06:37:18;;;;;;;8.18;2.05;;;18.00;93.40;;;;;;5025091;28;20449;-67
2022/09/21 06:39:46;;;;;;;6.22;2.05;;;17.90;93.90;;;;;;5033146;28;20053;-67
2022/09/21 06:42:13;;;;;;;7.75;1.80;;;17.80;94.20;;;;;;5033402;28;20091;-67
2022/09/21 06:44:40;;;;;;;7.75;1.83;;;17.70;94.50;;;;;;5029102;28;20025;-67
2022/09/21 06:47:07;;;;;;;8.60;2.13;;;17.70;94.70;;;;;;5030053;28;20026;-67
2022/09/21 06:49:35;;;;;;;8.73;2.10;;;17.70;95.00;;;;;;5034318;28;20505;-67
2022/09/21 06:52:03;;;;;;;10.77;2.00;;;17.60;95.10;;;;;;5027748;28;20075;-67
2022/09/21 06:54:30;;;;;;;4.78;2.10;;;17.50;95.40;;;;;;5027564;28;20041;-67
2022/09/21 06:56:57;;;;;;;16.65;2.90;;;17.50;95.80;;;;;;5023362;28;20061;-68
2022/09/21 06:59:24;;;;;;;10.50;2.53;;;17.50;96.60;;;;;;5029350;28;20030;-67
2022/09/21 07:01:54;;;;;;;11.07;3.17;;;17.40;96.70;;;;;;5027920;28;20033;-67
2022/09/21 07:04:23;;;;;;;6.47;1.98;;;17.30;97.00;;;;;;5026740;28;20116;-67
2022/09/21 07:06:51;;;;;;;7.80;2.25;;;17.30;97.20;;;;;;5024492;28;20036;-67
2022/09/21 07:09:18;;;;;;;6.93;2.88;;;17.20;97.20;;;;;;5029951;28;20122;-67
2022/09/21 07:11:46;;;;;;;8.93;3.00;;;17.20;97.50;;;;;;5026345;28;20025;-67
2022/09/21 07:14:14;;;;;;;10.18;2.50;;;17.10;97.80;;;;;;5029352;28;20033;-67
2022/09/21 07:16:42;;;;;;;7.85;2.42;;;17.10;97.90;;;;;;5024291;28;20014;-66
2022/09/21 07:19:09;;;;;;;10.00;2.42;;;17.00;97.90;;;;;;5028474;28;20028;-66
2022/09/21 07:21:36;;;;;;;7.20;2.63;;;16.90;97.90;;;;;;5034091;28;20428;-66
2022/09/21 07:24:04;;;;;;;16.33;3.35;;;16.80;98.60;;;;;;5031357;28;20031;-66
2022/09/21 07:26:32;;;;;;;11.50;2.95;;;16.80;98.90;;;;;;5027382;28;20025;-66
2022/09/21 07:28:59;;;;;;;8.20;2.58;;;16.70;98.90;;;;;;5024122;28;20047;-66
2022/09/21 07:31:27;;;;;;;9.73;4.20;;;16.70;99.40;;;;;;5031770;28;20536;-66
2022/09/21 07:33:57;;;;;;;6.97;3.13;;;16.60;99.90;;;;;;5030013;28;20451;-66
2022/09/21 07:36:25;;;;;;;5.53;3.00;;;16.50;99.90;;;;;;5023481;28;20595;-66
2022/09/21 07:38:53;;;;;;;7.72;3.13;;;16.50;99.90;;;;;;5031165;28;20101;-66
2022/09/21 07:41:21;;;;;;;15.35;3.00;;;16.40;99.90;;;;;;5030334;28;20113;-66
2022/09/21 07:43:48;;;;;;;9.30;3.17;;;16.30;99.90;;;;;;5027085;28;20114;-66
2022/09/21 07:46:16;;;;;;;6.22;2.45;;;16.30;99.90;;;;;;5031898;28;20703;-66
2022/09/21 07:48:43;;;;;;;14.82;3.58;;;16.20;99.90;;;;;;5037363;28;20430;-65
2022/09/21 07:51:13;;;;;;;12.98;3.08;;;16.20;99.90;;;;;;5028338;28;20112;-65
2022/09/21 07:53:43;;;;;;;9.75;3.20;;;16.20;99.90;;;;;;5023289;28;20029;-66
2022/09/21 07:56:16;;;;;;;7.70;3.28;;;16.10;99.90;;;;;;5034660;28;20039;-64
2022/09/21 08:01:30;;;;;;;15.10;3.83;;;16.10;99.90;;;;;;5023763;28;20071;-65
2022/09/21 08:03:58;;;;;;;8.40;4.22;;;16.10;99.90;;;;;;5022087;28;20033;-65
2022/09/21 08:06:29;;;;;;;12.68;4.93;;;16.10;99.90;;;;;;5028560;28;20095;-65
2022/09/21 08:08:56;;;;;;;9.15;3.28;;;16.10;99.90;;;;;;5034583;28;20025;-65
2022/09/21 08:11:24;;;;;;;9.35;3.28;;;16.10;99.90;;;;;;5032387;28;20075;-65
2022/09/21 08:13:57;;;;;;;8.60;3.40;;;16.10;99.90;;;;;;5026353;28;20505;-65
2022/09/21 08:16:25;;;;;;;11.23;3.30;;;16.00;99.90;;;;;;5032911;28;20034;-63
2022/09/21 08:18:53;;;;;;;9.75;4.57;;;16.00;99.90;;;;;;5032904;28;20106;-63
2022/09/21 08:21:20;;;;;;;14.50;4.43;;;15.90;99.90;;;;;;5021403;28;20112;-63
2022/09/21 08:23:48;;;;;;;10.85;4.60;;;15.90;99.90;;;;;;5032439;28;20033;-63
2022/09/21 08:26:18;;;;;;;12.75;4.57;;;15.80;99.90;;;;;;5031388;28;20490;-63
2022/09/21 08:28:51;;;;;;;10.85;5.47;;;15.80;99.90;;;;;;5032018;28;20493;-64
2022/09/21 08:31:20;;;;;;;13.80;4.72;;;15.80;99.90;;;;;;5032202;28;20471;-64
2022/09/21 08:33:49;;;;;;;14.27;4.95;;;15.80;99.90;;;;;;5030596;28;20113;-62
2022/09/21 08:36:17;;;;;;;13.25;4.78;;;15.80;99.90;;;;;;5016313;28;20060;-61
2022/09/21 08:38:44;;;;;;;10.13;4.78;;;15.80;99.90;;;;;;5032630;28;20018;-62
2022/09/21 08:41:23;;;;;;;16.55;5.70;;;15.80;99.90;;;;;;5030777;28;20030;-62
2022/09/21 08:44:13;;;;;;;11.80;5.40;;;15.70;99.90;;;;;;5029112;28;20435;-63
2022/09/21 08:46:42;;;;;;;12.23;5.15;;;15.70;99.90;;;;;;5026213;28;20072;-62
2022/09/21 08:49:20;;;;;;;14.05;4.57;;;15.70;99.90;;;;;;5027395;28;20033;-63
2022/09/21 08:52:01;;;;;;;11.30;5.15;;;15.70;99.90;;;;;;5017500;28;20032;-63
2022/09/21 08:54:42;;;;;;;11.32;5.45;;;15.60;99.90;;;;;;5023815;28;20040;-64
2022/09/21 08:57:12;;;;;;;11.07;6.53;;;15.60;99.90;;;;;;5024898;28;20032;-64
2022/09/21 08:59:44;;;;;;;14.60;5.97;;;15.70;99.90;;;;;;5022367;28;20061;-64
2022/09/21 09:02:49;;;;;;;12.88;6.45;;;15.70;99.90;;;;;;5029926;28;20040;-61
2022/09/21 09:05:44;;;;;;;11.73;6.28;;;15.70;99.90;;;;;;5027397;28;20037;-59
2022/09/21 09:08:18;;;;;;;;;;;15.60;99.90;;;;;;5016175;28;20039;-62
2022/09/21 09:11:03;;;;;;;16.15;6.97;;;15.60;99.90;;;;;;5025717;28;19912;-64
2022/09/21 09:13:56;;;;;;;17.55;7.78;;;15.50;99.90;;;;;;5026118;28;20112;-63
2022/09/21 09:16:45;;;;;;;17.15;7.22;;;15.50;99.90;;;;;;5018873;28;20073;-61
2022/09/21 09:19:18;;;;;;;11.60;6.10;;;15.40;99.90;;;;;;5027022;28;20036;-62
2022/09/21 09:21:46;;;;;;;12.73;5.20;;;15.40;99.90;;;;;;5030298;28;20053;-63
2022/09/21 09:24:22;;;;;;;12.52;5.00;;;15.30;99.90;;;;;;5027885;28;20029;-62
2022/09/21 09:26:54;;;;;;;14.07;5.43;;;15.30;99.90;;;;;;5013890;28;20378;-61
2022/09/21 09:29:30;;;;;;;15.38;5.85;;;15.20;99.90;;;;;;5027624;28;20057;-61
2022/09/21 09:32:00;;;;;;;14.10;5.80;;;15.10;99.90;;;;;;5041993;28;20030;-61
2022/09/21 09:34:41;;;;;;;10.85;5.65;;;15.00;99.90;;;;;;5028881;28;20549;-61
2022/09/21 09:37:16;;;;;;;15.18;6.68;;;15.00;99.90;;;;;;5034969;28;20048;-63
2022/09/21 09:39:55;;;;;;;12.23;4.88;;;15.00;99.90;;;;;;5026099;28;20535;-62
2022/09/21 09:42:55;;;;;;;13.55;5.95;;;15.00;99.90;;;;;;5024106;28;20044;-63
2022/09/21 09:45:42;;;;;;;12.43;6.10;;;15.10;99.90;;;;;;5027574;28;20036;-60
2022/09/21 09:48:25;;;;;;;16.88;6.63;;;15.10;99.90;;;;;;5026209;28;20524;-61
2022/09/21 09:50:53;;;;;;;19.15;6.75;;;15.20;99.90;;;;;;5021277;28;20698;-60
2022/09/21 09:53:25;;;;;;;17.25;6.53;;;15.20;99.90;;;;;;5026217;28;20033;-61
2022/09/21 09:55:55;;;;;;;14.13;5.68;;;15.20;99.90;;;;;;5021012;28;20033;-59
2022/09/21 09:58:22;;;;;;;10.80;4.93;;;15.10;99.90;;;;;;5011019;28;20467;-61
2022/09/21 10:00:55;;;;;;;13.10;5.43;;;15.00;99.90;;;;;;5025207;28;20030;-59
2022/09/21 10:03:27;;;;;;;10.95;5.68;;;15.00;99.90;;;;;;5027683;28;20047;-59
2022/09/21 10:05:55;;;;;;;13.75;5.80;;;14.90;99.90;;;;;;5025830;28;20390;-59
2022/09/21 10:08:46;;;;;;;16.05;7.75;;;14.90;99.90;;;;;;5027918;28;20029;-60
2022/09/21 10:11:15;;;;;;;15.68;7.10;;;14.80;99.90;;;;;;5026520;28;20112;-60
2022/09/21 10:13:47;;;;;;;15.27;5.95;;;14.80;99.90;;;;;;5027383;28;20560;-62
2022/09/21 10:16:14;;;;;;;13.23;6.90;;;14.80;99.90;;;;;;5025249;28;20053;-59
2022/09/21 10:18:51;;;;;;;13.38;6.38;;;14.90;99.90;;;;;;5028547;28;20017;-60
2022/09/21 10:21:27;;;;;;;22.00;9.00;;;14.90;99.90;;;;;;5026816;28;20025;-60
2022/09/21 10:24:05;;;;;;;15.82;8.40;;;14.80;99.90;;;;;;5027598;28;20033;-60
2022/09/21 10:26:46;;;;;;;19.58;7.97;;;14.90;99.90;;;;;;5027396;28;20063;-62
2022/09/21 10:29:22;;;;;;;21.38;7.30;;;14.90;99.90;;;;;;5032215;28;20402;-61
2022/09/21 10:32:12;;;;;;;14.20;7.80;;;14.90;99.90;;;;;;5020384;28;20599;-61
2022/09/21 10:34:44;;;;;;;20.63;7.65;;;14.90;99.90;;;;;;5023452;28;20032;-62
2022/09/21 10:37:53;;;;;;;14.65;7.03;;;14.90;99.90;;;;;;5027403;28;20485;-61
2022/09/21 10:40:20;;;;;;;22.80;11.05;;;14.90;99.90;;;;;;5000350;28;20495;-60
2022/09/21 10:42:53;;;;;;;25.17;9.85;;;14.90;99.90;;;;;;5029105;28;20048;-60
2022/09/21 10:45:27;;;;;;;20.43;7.97;;;14.90;99.90;;;;;;5028347;28;20034;-62
2022/09/21 10:48:13;;;;;;;18.08;9.43;;;14.90;99.90;;;;;;5022961;28;20026;-60
2022/09/21 10:50:45;;;;;;;14.27;7.88;;;14.90;99.90;;;;;;5022004;28;20140;-60
2022/09/21 10:53:33;;;;;;;15.40;7.00;;;14.90;99.90;;;;;;5030040;28;20029;-64
2022/09/21 10:56:00;;;;;;;16.48;7.47;;;14.90;99.90;;;;;;5021500;28;20082;-61
2022/09/21 10:58:27;;;;;;;18.83;8.05;;;14.90;99.90;;;;;;5029801;28;20025;-65
2022/09/21 11:01:08;;;;;;;16.67;6.78;;;14.90;99.90;;;;;;5016297;28;20053;-62
2022/09/21 11:03:58;;;;;;;19.42;8.25;;;14.90;99.90;;;;;;5021145;28;20471;-64
2022/09/21 11:06:37;;;;;;;18.75;8.07;;;15.00;99.90;;;;;;5028695;28;20041;-64
2022/09/21 11:09:31;;;;;;;13.07;6.85;;;15.00;99.90;;;;;;5021771;28;20022;-62
2022/09/21 11:12:06;;;;;;;17.20;7.63;;;15.00;99.90;;;;;;5020535;28;20030;-62
2022/09/21 11:14:42;;;;;;;17.75;8.75;;;14.90;99.90;;;;;;5013421;28;20029;-62
2022/09/21 11:17:19;;;;;;;18.02;8.30;;;14.90;99.90;;;;;;5024229;28;20026;-62
2022/09/21 11:19:50;;;;;;;20.63;8.15;;;14.90;99.90;;;;;;5019315;28;20143;-65
2022/09/21 11:22:41;;;;;;;15.65;8.52;;;15.00;99.90;;;;;;5023964;28;20051;-61
2022/09/21 11:25:31;;;;;;;16.55;7.05;;;15.00;99.90;;;;;;5013428;28;20024;-63
2022/09/21 11:28:12;;;;;;;15.48;8.98;;;15.00;99.90;;;;;;5018149;28;20036;-62
2022/09/21 11:30:54;;;;;;;18.00;7.75;;;15.00;99.90;;;;;;5024736;28;20053;-61
2022/09/21 11:34:02;;;;;;;18.33;8.75;;;15.10;99.90;;;;;;5025524;28;20024;-63
2022/09/21 11:36:58;;;;;;;16.27;8.70;;;15.10;99.90;;;;;;4997284;28;20056;-62
2022/09/21 11:39:50;;;;;;;19.60;8.48;;;15.20;99.90;;;;;;5015192;28;20026;-63
2022/09/21 11:42:52;;;;;;;19.92;7.95;;;15.10;99.90;;;;;;5027721;28;20215;-59
2022/09/21 11:45:46;;;;;;;22.25;9.65;;;15.10;99.90;;;;;;5015125;28;20073;-59
2022/09/21 11:48:22;;;;;;;16.70;8.63;;;15.10;99.90;;;;;;5026650;28;20029;-60
2022/09/21 11:51:12;;;;;;;23.98;8.82;;;15.10;99.90;;;;;;5014499;28;20029;-60
2022/09/21 11:54:02;;;;;;;21.75;9.88;;;15.10;99.90;;;;;;5019985;28;20375;-60
2022/09/21 11:56:49;;;;;;;36.53;9.95;;;15.00;99.90;;;;;;5026341;28;20028;-65
2022/09/21 11:59:53;;;;;;;26.25;10.50;;;15.00;99.90;;;;;;5021836;28;20025;-61
2022/09/21 12:02:32;;;;;;;19.20;9.88;;;15.00;99.90;;;;;;5027385;28;20037;-62
2022/09/21 12:05:23;;;;;;;14.73;8.93;;;15.00;99.90;;;;;;5025204;28;20068;-61
2022/09/21 12:07:58;;;;;;;17.45;9.48;;;15.00;99.90;;;;;;5028104;28;20029;-62
2022/09/21 12:11:02;;;;;;;16.73;9.27;;;15.00;99.90;;;;;;5024724;28;20037;-60
2022/09/21 12:13:32;;;;;;;19.38;9.40;;;14.90;99.90;;;;;;5019020;28;20157;-64
2022/09/21 12:16:11;;;;;;;18.40;9.00;;;15.00;99.90;;;;;;5021677;28;20034;-61
2022/09/21 12:19:08;;;;;;;18.83;8.45;;;15.00;99.90;;;;;;5022952;28;20091;-62
2022/09/21 12:21:41;;;;;;;21.85;8.65;;;15.00;99.90;;;;;;5000861;28;20061;-61
2022/09/21 12:24:17;;;;;;;17.42;9.57;;;15.00;99.90;;;;;;5028973;28;20628;-62
2022/09/21 12:26:57;;;;;;;16.60;10.57;;;15.00;99.90;;;;;;5016511;28;20026;-62
2022/09/21 12:29:46;;;;;;;21.60;10.00;;;14.90;99.90;;;;;;5020824;28;20018;-63
2022/09/21 12:32:52;;;;;;;17.40;11.20;;;14.90;99.90;;;;;;5024605;28;20025;-62
2022/09/21 12:35:40;;;;;;;24.15;11.45;;;14.90;99.90;;;;;;4993023;28;20402;-63
2022/09/21 12:38:26;;;;;;;16.88;10.07;;;14.90;99.90;;;;;;5028524;28;20116;-65
2022/09/21 12:41:05;;;;;;;20.02;11.30;;;14.90;99.90;;;;;;5014453;28;20049;-64
2022/09/21 12:43:59;;;;;;;27.30;12.27;;;14.90;99.90;;;;;;5027121;28;20088;-65
2022/09/21 12:46:34;;;;;;;23.23;11.82;;;14.80;99.90;;;;;;5030623;28;20014;-66
2022/09/21 12:49:09;;;;;;;18.80;11.45;;;14.80;99.90;;;;;;5023097;28;20037;-69
2022/09/21 12:51:41;;;;;;;21.58;13.40;;;14.80;99.90;;;;;;5020848;28;20112;-63
2022/09/21 12:54:36;;;;;;;19.40;12.30;;;14.70;99.90;;;;;;5031181;28;20056;-63
2022/09/21 12:57:24;;;;;;;20.73;12.30;;;14.60;99.90;;;;;;5018177;28;20052;-63
2022/09/21 13:00:21;;;;;;;23.60;13.32;;;14.70;99.90;;;;;;5022468;28;20044;-64
2022/09/21 13:02:51;;;;;;;43.83;31.27;;;14.60;99.90;;;;;;5020324;28;20060;-63
2022/09/21 13:05:24;;;;;;;25.52;17.45;;;14.60;99.90;;;;;;5030305;28;20648;-63
2022/09/21 13:08:20;;;;;;;26.55;17.27;;;14.50;99.90;;;;;;5031640;28;20086;-63
2022/09/21 13:11:04;;;;;;;19.45;14.20;;;14.50;99.90;;;;;;5018975;28;20026;-63
2022/09/21 13:13:58;;;;;;;27.70;16.02;;;14.40;99.90;;;;;;5023158;28;20034;-64
2022/09/21 13:16:32;;;;;;;26.60;15.95;;;14.30;99.90;;;;;;5028518;28;20029;-63
2022/09/21 13:19:03;;;;;;;28.83;16.38;;;14.30;99.90;;;;;;5028245;28;20025;-63
2022/09/21 13:21:32;;;;;;;26.27;14.93;;;14.30;99.90;;;;;;5029979;28;20033;-63
2022/09/21 13:24:04;;;;;;;27.15;15.32;;;14.30;99.90;;;;;;5027151;28;20094;-63
2022/09/21 13:26:54;;;;;;;22.25;13.10;;;14.30;99.90;;;;;;5028619;28;20124;-63